Detall de PIREP

Printer-friendly versionPDF version

[2014/10/22 13:55:00]
Flight IATA:CT3309
Pilot Number:042
Company ICAO:CAT
Aircraft Type:B463/A
PAX:29
Aircraft Registration:PAX
Departing Airport: HLLT
Destination Airport: LEZG
Alternate Airport:LEMD
Online: VATSIM
Route:TANLI UP128 TBS UA31 ALR UG30 SADAF UN856 RES UN863 ARBEK UN725 LOBAR
Flight Level:F340
No Slew and time accel
No pause
Crash detect
Detect pilot in Cockpit between each 30 and 45 minutes
13:55 Zero fuel Weight: 80445 Lbs, Fuel Weight: 20595 Lbs
13:55 VATSIM:No METAR available for HLLT.
13:55 VATSIM:LEZG 221130Z 31031G42KT CAVOK 18/05 Q1026
14:07 Parking Brakes off
14:14 Take-off
14:14 Take off Weight: 100121 Lbs
14:14 Wind: 306º @ 014 Knots Heading: 273º
14:14 POS N32º 39´ 55´´ E013º 09´ 00´´
14:14 Flaps:2 at 154 Knots
14:14 Gear Up: 152 Knots
14:14 Flaps:1 at 144 Knots
14:17 Flaps:0 at 241 Knots
14:29 Wind:336º@020 Knots Heading: 307º Ground Speed: 352 Knots Altitude 28799 ft
14:34 TOC
14:34 Fuel Weight: 16652 Lb
14:44 Wind:315º@033 Knots Heading: 308º Ground Speed: 380 Knots Altitude 34015 ft
14:59 Wind:322º@034 Knots Heading: 305º Ground Speed: 376 Knots Altitude 34071 ft
15:14 Wind:330º@036 Knots Heading: 307º Ground Speed: 375 Knots Altitude 34189 ft
15:29 Wind:315º@049 Knots Heading: 282º Ground Speed: 368 Knots Altitude 34232 ft
15:44 Wind:321º@041 Knots Heading: 282º Ground Speed: 377 Knots Altitude 34212 ft
15:59 Wind:321º@041 Knots Heading: 326º Ground Speed: 367 Knots Altitude 34232 ft
16:14 Wind:333º@051 Knots Heading: 348º Ground Speed: 359 Knots Altitude 34258 ft
16:29 Wind:335º@060 Knots Heading: 351º Ground Speed: 350 Knots Altitude 34235 ft
16:40 TOD
16:40 Fuel Weight: 8809 Lb
16:44 Wind:325º@054 Knots Heading: 294º Ground Speed: 303 Knots Altitude 29498 ft
16:58 Flaps:1 at 181 Knots
16:59 Wind:356º@020 Knots Heading: 201º Ground Speed: 244 Knots Altitude 8776 ft
17:03 Flaps:2 at 179 Knots
17:05 Gear Down: 174 Knots
17:05 Flaps:3 at 172 Knots
17:05 Flaps:4 at 171 Knots
17:08 TouchDown:Rate -461 ft/min Speed: 124 Knots
17:08 VATSIM:LEZG 221430Z 31020KT CAVOK 20/04 Q1025
17:08 Land
17:08 Wind:310º@020 Knots
17:08 Heading: 300º
17:08 Flight Duration: 02:54
17:08 Landing Weight: 88290 Lbs
17:08 POS N41º 39´ 46´´ W001º 01´ 31´´
17:09 Parking brakes on
17:09 Block to Block Duration: 03:02
17:09 Final Fuel: 7724 Lbls
17:09 Spent Fuel: 12870 Lbls
17:09 Flight Length: 986 NM
17:09 TOD Land Length: 114 NM

Exportar CSV

Powered by Drupal - Modified by Danger4k